Time;durP1;ratioP1;P1;durP2;ratioP2;P2;SDS_P1;SDS_P2;PMS_P1;PMS_P2;Temp;Humidity;BMP_temperature;BMP_pressure;BME280_temperature;BME280_humidity;BME280_pressure;Samples;Min_cycle;Max_cycle;Signal;HPM_P1;HPM_P2
2023/06/05 00:02:04;;;;;;;;;;;;;;;14.04;29.05;101172.94;4942824;27;98186;-65
2023/06/05 00:04:30;;;;;;;;;;;;;;;14.01;28.78;101181.63;4976592;27;98058;-65
2023/06/05 00:06:57;;;;;;;;;;;;;;;13.98;28.90;101176.72;4925526;28;97822;-65
2023/06/05 00:09:25;;;;;;;;;;;;;;;13.94;29.21;101179.16;4951454;28;98272;-72
2023/06/05 00:11:51;;;;;;;;;;;;;;;13.90;28.92;101178.09;4946447;27;98159;-72
2023/06/05 00:14:17;;;;;;;;;;;;;;;13.86;29.24;101176.19;4929630;27;126643;-65
2023/06/05 00:16:44;;;;;;;;;;;;;;;13.80;29.21;101164.56;4928590;28;98199;-65
2023/06/05 00:19:10;;;;;;;;;;;;;;;13.75;29.15;101170.81;4943123;27;98881;-65
2023/06/05 00:21:36;;;;;;;;;;;;;;;13.70;29.25;101164.56;4934547;28;98269;-65
2023/06/05 00:24:02;;;;;;;;;;;;;;;13.64;29.20;101166.47;4950663;27;99798;-72
2023/06/05 00:26:28;;;;;;;;;;;;;;;13.60;28.86;101161.88;4966262;27;98363;-65
2023/06/05 00:28:55;;;;;;;;;;;;;;;13.54;29.20;101168.34;4947460;28;99786;-73
2023/06/05 00:31:21;;;;;;;;;;;;;;;13.51;29.45;101161.56;4942668;28;97946;-72
2023/06/05 00:33:48;;;;;;;;;;;;;;;13.48;28.90;101159.41;4943088;27;98791;-65
2023/06/05 00:36:15;;;;;;;;;;;;;;;13.43;29.09;101157.50;4951822;27;98075;-65
2023/06/05 00:38:41;;;;;;;;;;;;;;;13.39;29.05;101161.81;4967700;27;100112;-65
2023/06/05 00:41:07;;;;;;;;;;;;;;;13.34;29.04;101169.94;4941116;27;97993;-65
2023/06/05 00:43:33;;;;;;;;;;;;;;;13.30;29.18;101168.88;4944551;27;99281;-64
2023/06/05 00:46:02;;;;;;;;;;;;;;;13.25;29.08;101164.25;4944596;27;98456;-71
2023/06/05 00:48:29;;;;;;;;;;;;;;;13.24;29.36;101162.63;4963328;27;99653;-71
2023/06/05 00:50:56;;;;;;;;;;;;;;;13.21;29.34;101157.72;4959688;28;98516;-72
2023/06/05 00:53:23;;;;;;;;;;;;;;;13.19;29.38;101162.56;4977093;27;99274;-71
2023/06/05 00:55:49;;;;;;;;;;;;;;;13.15;29.17;101155.25;4935718;27;98021;-64
2023/06/05 00:58:16;;;;;;;;;;;;;;;13.10;29.37;101160.69;4945372;27;98120;-72
2023/06/05 01:00:42;;;;;;;;;;;;;;;13.05;29.36;101160.63;4939946;27;98294;-64
2023/06/05 01:03:08;;;;;;;;;;;;;;;12.98;29.15;101160.91;4947223;27;98255;-64
2023/06/05 01:05:36;;;;;;;;;;;;;;;12.93;29.24;101156.31;4954000;27;97926;-72
2023/06/05 01:08:03;;;;;;;;;;;;;;;12.92;29.43;101156.56;4941800;27;97991;-64
2023/06/05 01:10:30;;;;;;;;;;;;;;;12.87;29.34;101153.84;4968724;27;98149;-71
2023/06/05 01:13:15;;;;;;;;;;;;;;;12.83;29.39;101153.56;4951327;27;98300;-72
2023/06/05 01:15:41;;;;;;;;;;;;;;;12.78;29.42;101154.34;4966275;27;98265;-64
2023/06/05 01:18:08;;;;;;;;;;;;;;;12.76;29.47;101155.69;4960320;28;99664;-72
2023/06/05 01:20:35;;;;;;;;;;;;;;;12.73;29.37;101153.50;4945988;28;98661;-71
2023/06/05 01:23:03;;;;;;;;;;;;;;;12.70;29.44;101152.16;4966239;27;97841;-64
2023/06/05 01:25:29;;;;;;;;;;;;;;;12.68;29.35;101158.91;4944703;27;97858;-71
2023/06/05 01:28:15;;;;;;;;;;;;;;;12.64;29.39;101150.50;4967305;28;98232;-64
2023/06/05 01:31:06;;;;;;;;;;;;;;;12.65;29.43;101149.41;4983262;27;98389;-64
2023/06/05 01:33:43;;;;;;;;;;;;;;;12.71;29.36;101153.78;4936351;27;98166;-72
2023/06/05 01:36:10;;;;;;;;;;;;;;;12.77;29.48;101151.91;4980073;27;97871;-72
2023/06/05 01:38:37;;;;;;;;;;;;;;;12.78;29.48;101148.13;4963471;27;99977;-72
2023/06/05 01:41:03;;;;;;;;;;;;;;;12.78;29.51;101145.44;4946230;27;97995;-64
2023/06/05 01:43:30;;;;;;;;;;;;;;;12.78;29.43;101142.72;4930733;27;98407;-72
2023/06/05 01:45:58;;;;;;;;;;;;;;;12.76;29.46;101144.88;4950514;28;98063;-64
2023/06/05 01:48:27;;;;;;;;;;;;;;;12.75;29.53;101145.97;4977639;27;98335;-72
2023/06/05 01:51:00;;;;;;;;;;;;;;;12.73;29.53;101132.72;4952893;27;98819;-64
2023/06/05 01:53:27;;;;;;;;;;;;;;;12.71;29.45;101140.25;4961006;27;98218;-72
2023/06/05 01:55:56;;;;;;;;;;;;;;;12.69;29.60;101138.88;4942702;27;98774;-64
2023/06/05 01:58:26;;;;;;;;;;;;;;;12.66;29.57;101140.25;4946666;27;99591;-71
2023/06/05 02:00:53;;;;;;;;;;;;;;;12.62;29.60;101141.84;4928876;28;99424;-64
2023/06/05 02:03:20;;;;;;;;;;;;;;;12.60;29.75;101140.50;4947054;27;99518;-64
2023/06/05 02:05:46;;;;;;;;;;;;;;;12.55;29.44;101140.47;4947211;27;98078;-64
2023/06/05 02:08:19;;;;;;;;;;;;;;;12.50;29.69;101139.38;4942115;27;99276;-66
2023/06/05 02:10:45;;;;;;;;;;;;;;;12.48;29.68;101140.72;4945971;27;98053;-65
2023/06/05 02:13:11;;;;;;;;;;;;;;;12.44;29.63;101139.59;4946742;27;98118;-72
2023/06/05 02:15:38;;;;;;;;;;;;;;;12.40;29.88;101130.41;4949564;27;98131;-65
2023/06/05 02:18:04;;;;;;;;;;;;;;;12.35;29.56;101133.91;4964042;27;98406;-65
2023/06/05 02:20:32;;;;;;;;;;;;;;;12.31;29.58;101132.78;4962718;28;97983;-65
2023/06/05 02:22:58;;;;;;;;;;;;;;;12.28;29.69;101131.41;4951975;27;97896;-65
2023/06/05 02:25:26;;;;;;;;;;;;;;;12.25;29.54;101131.13;4962565;27;97942;-65
2023/06/05 02:27:53;;;;;;;;;;;;;;;12.22;29.60;101127.06;4944254;27;98204;-65
2023/06/05 02:30:20;;;;;;;;;;;;;;;12.16;29.79;101128.13;4945240;27;98019;-72
2023/06/05 02:32:46;;;;;;;;;;;;;;;12.13;29.64;101123.22;4928448;27;98108;-72
2023/06/05 02:35:13;;;;;;;;;;;;;;;12.10;29.73;101128.34;4947441;27;98196;-72
2023/06/05 02:37:43;;;;;;;;;;;;;;;12.06;29.94;101127.22;4948642;27;100486;-72
2023/06/05 02:40:10;;;;;;;;;;;;;;;12.02;30.03;101133.19;4945356;27;98865;-65
2023/06/05 02:42:37;;;;;;;;;;;;;;;11.99;29.79;101127.47;4946537;27;99416;-65
2023/06/05 02:45:03;;;;;;;;;;;;;;;11.98;29.72;101131.22;4948636;27;98063;-72
2023/06/05 02:47:30;;;;;;;;;;;;;;;11.94;29.44;101132.81;4945489;27;98776;-65
2023/06/05 02:49:56;;;;;;;;;;;;;;;11.91;29.73;101133.38;4949106;27;97961;-72
2023/06/05 02:52:24;;;;;;;;;;;;;;;11.88;29.92;101142.78;4947670;27;98359;-64
2023/06/05 02:54:51;;;;;;;;;;;;;;;11.83;30.01;101139.19;4961434;27;98071;-65
2023/06/05 02:57:17;;;;;;;;;;;;;;;11.79;30.02;101141.63;4944961;27;99074;-65
2023/06/05 02:59:44;;;;;;;;;;;;;;;11.73;29.56;101137.25;4954341;27;99624;-64
2023/06/05 03:02:11;;;;;;;;;;;;;;;11.71;30.02;101147.47;4962636;27;102697;-71
2023/06/05 03:04:39;;;;;;;;;;;;;;;11.71;29.53;101150.19;4965121;27;99788;-65
2023/06/05 03:07:05;;;;;;;;;;;;;;;11.67;30.14;101143.66;4948241;27;98134;-71
2023/06/05 03:09:31;;;;;;;;;;;;;;;11.63;29.96;101138.00;4980735;27;98296;-72
2023/06/05 03:12:00;;;;;;;;;;;;;;;11.62;30.02;101140.94;4944199;27;97844;-72
2023/06/05 03:14:27;;;;;;;;;;;;;;;11.59;30.01;101141.44;4967394;28;98080;-72
2023/06/05 03:16:53;;;;;;;;;;;;;;;11.60;30.01;101143.09;4937870;28;98916;-71
2023/06/05 03:19:20;;;;;;;;;;;;;;;11.60;29.65;101143.09;4957383;28;99088;-71
2023/06/05 03:21:47;;;;;;;;;;;;;;;11.60;30.24;101143.91;4946038;27;99334;-72
2023/06/05 03:24:14;;;;;;;;;;;;;;;11.62;30.07;101146.34;4945767;27;98227;-72
2023/06/05 03:26:40;;;;;;;;;;;;;;;11.63;30.40;101146.09;4950080;27;98424;-65
2023/06/05 03:29:07;;;;;;;;;;;;;;;11.66;29.79;101155.56;4950879;27;98338;-72
2023/06/05 03:31:35;;;;;;;;;;;;;;;11.66;29.86;101145.56;4948318;27;99120;-65
2023/06/05 03:34:02;;;;;;;;;;;;;;;11.67;30.05;101149.06;4981462;27;98214;-64
2023/06/05 03:36:29;;;;;;;;;;;;;;;11.68;29.63;101145.31;4946692;27;98015;-72
2023/06/05 03:38:56;;;;;;;;;;;;;;;11.72;29.83;101146.44;4936622;27;99610;-71
2023/06/05 03:41:22;;;;;;;;;;;;;;;11.78;29.73;101146.19;4952818;27;98123;-72
2023/06/05 03:43:52;;;;;;;;;;;;;;;11.83;29.53;101144.59;4961208;27;98288;-72
2023/06/05 03:46:18;;;;;;;;;;;;;;;11.88;29.69;101140.09;4945932;27;98089;-72
2023/06/05 03:48:45;;;;;;;;;;;;;;;11.92;29.88;101138.50;4951388;27;98320;-72
2023/06/05 03:51:11;;;;;;;;;;;;;;;11.99;29.77;101143.69;4946068;27;99337;-72
2023/06/05 03:53:43;;;;;;;;;;;;;;;12.06;29.96;101138.84;4946123;27;98265;-65
2023/06/05 03:56:09;;;;;;;;;;;;;;;12.10;29.62;101136.44;4951406;27;98170;-64
2023/06/05 03:58:35;;;;;;;;;;;;;;;12.15;29.93;101145.41;4949500;27;100755;-72
2023/06/05 04:01:01;;;;;;;;;;;;;;;12.21;30.30;101138.13;4952186;27;98303;-65
2023/06/05 04:03:28;;;;;;;;;;;;;;;12.28;29.77;101136.81;4970506;27;98057;-65
2023/06/05 04:05:54;;;;;;;;;;;;;;;12.37;29.76;101139.03;4950179;28;98124;-66
2023/06/05 04:08:20;;;;;;;;;;;;;;;12.42;29.76;101139.88;4965343;27;97916;-72
2023/06/05 04:10:46;;;;;;;;;;;;;;;12.49;29.69;101140.44;4949714;27;99455;-64
2023/06/05 04:13:12;;;;;;;;;;;;;;;12.57;29.71;101138.31;4957070;27;98103;-72
2023/06/05 04:15:38;;;;;;;;;;;;;;;12.65;29.58;101140.50;4947456;27;98471;-71
2023/06/05 04:18:05;;;;;;;;;;;;;;;12.75;29.71;101135.13;4967749;27;97987;-72
2023/06/05 04:20:31;;;;;;;;;;;;;;;12.85;29.68;101135.19;4951561;27;98500;-65
2023/06/05 04:22:57;;;;;;;;;;;;;;;12.95;29.60;101137.91;4951794;27;98036;-65
2023/06/05 04:25:23;;;;;;;;;;;;;;;13.03;29.73;101129.25;4965318;27;114307;-65
2023/06/05 04:27:51;;;;;;;;;;;;;;;13.15;29.64;101136.31;4947230;27;97803;-65
2023/06/05 04:30:20;;;;;;;;;;;;;;;13.25;29.68;101130.97;4949886;27;98123;-65
2023/06/05 04:32:54;;;;;;;;;;;;;;;13.36;29.53;101139.88;4964527;27;98119;-64
2023/06/05 04:35:20;;;;;;;;;;;;;;;13.45;29.61;101141.00;4942738;28;98544;-65
2023/06/05 04:37:47;;;;;;;;;;;;;;;13.50;29.58;101144.50;4963066;27;98599;-72
2023/06/05 04:40:13;;;;;;;;;;;;;;;13.57;29.77;101146.94;4943457;27;98226;-72
2023/06/05 04:42:39;;;;;;;;;;;;;;;13.62;29.37;101144.25;4944237;27;98191;-72
2023/06/05 04:45:10;;;;;;;;;;;;;;;13.65;29.55;101143.69;4947688;27;98101;-72
2023/06/05 04:47:36;;;;;;;;;;;;;;;13.68;29.63;101140.47;4962469;27;98462;-72
2023/06/05 04:50:04;;;;;;;;;;;;;;;13.73;29.75;101134.22;4945329;27;99097;-65
2023/06/05 04:52:34;;;;;;;;;;;;;;;13.81;29.84;101139.09;4965799;27;98343;-65
2023/06/05 04:55:01;;;;;;;;;;;;;;;13.88;29.91;101136.91;4943950;28;98029;-65
2023/06/05 04:57:27;;;;;;;;;;;;;;;13.93;29.88;101134.19;4959440;27;98184;-72
2023/06/05 04:59:54;;;;;;;;;;;;;;;14.00;29.71;101132.00;4958010;27;99740;-72
2023/06/05 05:02:20;;;;;;;;;;;;;;;14.12;29.75;101136.34;4957238;27;98516;-65
2023/06/05 05:04:47;;;;;;;;;;;;;;;14.24;29.78;101136.84;4946658;28;98152;-71
2023/06/05 05:07:16;;;;;;;;;;;;;;;14.42;29.65;101138.97;4960174;27;98812;-72
2023/06/05 05:09:43;;;;;;;;;;;;;;;14.64;29.41;101135.09;4946332;28;98134;-66
2023/06/05 05:12:09;;;;;;;;;;;;;;;14.88;29.39;101127.09;4932501;27;97858;-66
2023/06/05 05:14:36;;;;;;;;;;;;;;;15.14;29.09;101133.22;4928216;27;98881;-66
2023/06/05 05:17:02;;;;;;;;;;;;;;;15.38;29.20;101128.69;4941189;27;98199;-66
2023/06/05 05:19:29;;;;;;;;;;;;;;;15.63;29.34;101137.72;4962960;27;98112;-65
2023/06/05 05:21:55;;;;;;;;;;;;;;;15.86;28.95;101142.44;4940656;28;98384;-66
2023/06/05 05:24:22;;;;;;;;;;;;;;;16.09;29.11;101132.69;4942444;27;99962;-72
2023/06/05 05:26:49;;;;;;;;;;;;;;;16.36;29.12;101134.84;4937645;27;98879;-65
2023/06/05 05:29:16;;;;;;;;;;;;;;;16.62;28.98;101129.91;4961831;27;98970;-72
2023/06/05 05:31:42;;;;;;;;;;;;;;;16.88;28.76;101127.69;4945495;27;98153;-73
2023/06/05 05:34:08;;;;;;;;;;;;;;;17.15;28.45;101123.50;4962789;27;98279;-73
2023/06/05 05:36:36;;;;;;;;;;;;;;;17.42;28.63;101128.25;4962213;27;99668;-73
2023/06/05 05:39:02;;;;;;;;;;;;;;;17.71;28.70;101125.31;4948228;27;97842;-65
2023/06/05 05:41:28;;;;;;;;;;;;;;;18.02;28.61;101125.59;4952714;28;98046;-65
2023/06/05 05:43:55;;;;;;;;;;;;;;;18.36;28.50;101124.41;4979431;27;99369;-72
2023/06/05 05:46:21;;;;;;;;;;;;;;;18.75;28.46;101118.44;4941096;27;97871;-65
2023/06/05 05:48:47;;;;;;;;;;;;;;;19.74;27.80;101129.53;4926479;27;98196;-73
2023/06/05 05:51:13;;;;;;;;;;;;;;;19.74;28.16;101113.09;4944920;27;98360;-72
2023/06/05 05:53:40;;;;;;;;;;;;;;;20.13;28.23;101120.53;4948808;27;98604;-73
2023/06/05 05:56:06;;;;;;;;;;;;;;;20.65;28.13;101128.13;4978954;27;98097;-66
2023/06/05 05:58:33;;;;;;;;;;;;;;;21.18;28.23;101124.28;4947111;27;98134;-66
2023/06/05 06:00:59;;;;;;;;;;;;;;;21.74;28.13;101117.00;4948879;28;98408;-73
2023/06/05 06:03:29;;;;;;;;;;;;;;;22.33;28.24;101119.88;4950293;27;98072;-73
2023/06/05 06:05:56;;;;;;;;;;;;;;;23.07;27.80;101126.69;4946407;27;98238;-66
2023/06/05 06:08:22;;;;;;;;;;;;;;;24.80;27.22;101123.91;4947829;27;98195;-66
2023/06/05 06:10:48;;;;;;;;;;;;;;;26.74;25.73;101122.31;4952080;27;98005;-66
2023/06/05 06:13:15;;;;;;;;;;;;;;;26.04;26.75;101128.53;4943860;27;99937;-66
2023/06/05 06:15:41;;;;;;;;;;;;;;;26.05;26.92;101132.91;4931802;27;98148;-66
2023/06/05 06:18:07;;;;;;;;;;;;;;;26.72;26.87;101132.94;4944855;27;97982;-67
2023/06/05 06:20:34;;;;;;;;;;;;;;;26.91;27.18;101127.44;4932091;27;98201;-67
2023/06/05 06:23:02;;;;;;;;;;;;;;;27.18;27.15;101130.38;4947382;27;98588;-74
2023/06/05 06:25:31;;;;;;;;;;;;;;;27.75;27.21;101130.72;4938131;27;97969;-74
2023/06/05 06:27:59;;;;;;;;;;;;;;;28.50;26.86;101131.97;4941756;27;98306;-70
2023/06/05 06:30:26;;;;;;;;;;;;;;;30.94;25.08;101125.69;4947352;27;98038;-74
2023/06/05 06:32:53;;;;;;;;;;;;;;;30.87;25.63;101130.44;4951316;27;98335;-67
2023/06/05 06:35:19;;;;;;;;;;;;;;;30.89;25.94;101139.16;4967795;27;98147;-67
2023/06/05 06:37:45;;;;;;;;;;;;;;;31.10;25.60;101133.72;4934049;28;98068;-67
2023/06/05 06:40:12;;;;;;;;;;;;;;;30.35;25.92;101126.91;4956317;27;98021;-73
2023/06/05 06:42:38;;;;;;;;;;;;;;;29.42;26.58;101135.16;4953796;27;98551;-74
2023/06/05 06:45:04;;;;;;;;;;;;;;;28.85;26.92;101138.00;4953314;27;97932;-73
2023/06/05 06:47:31;;;;;;;;;;;;;;;28.28;27.29;101133.56;4963516;27;98335;-66
2023/06/05 06:49:57;;;;;;;;;;;;;;;28.27;27.37;101134.75;4958133;27;97971;-66
2023/06/05 06:52:23;;;;;;;;;;;;;;;28.28;27.31;101131.59;4929680;27;98437;-66
2023/06/05 06:54:50;;;;;;;;;;;;;;;28.19;27.17;101131.06;4963746;27;99900;-74
2023/06/05 06:57:16;;;;;;;;;;;;;;;28.02;27.27;101135.16;4943293;27;99085;-66
2023/06/05 06:59:42;;;;;;;;;;;;;;;28.40;26.97;101122.31;4944024;27;98139;-74
2023/06/05 07:02:19;;;;;;;;;;;;;;;29.37;26.62;101127.19;4965277;27;98219;-74
2023/06/05 07:04:45;;;;;;;;;;;;;;;30.48;25.71;101125.41;4962938;27;98127;-74
2023/06/05 07:07:15;;;;;;;;;;;;;;;31.27;25.52;101121.81;4946890;27;98068;-66
2023/06/05 07:09:42;;;;;;;;;;;;;;;32.12;25.13;101131.56;4929451;27;99750;-67
2023/06/05 07:12:09;;;;;;;;;;;;;;;32.73;25.22;101125.88;4945044;27;99637;-75
2023/06/05 07:14:35;;;;;;;;;;;;;;;33.20;24.91;101132.88;4962650;27;98391;-66
2023/06/05 07:17:02;;;;;;;;;;;;;;;33.63;25.02;101131.88;4964349;27;99766;-66
2023/06/05 07:19:29;;;;;;;;;;;;;;;33.98;24.60;101130.03;4966278;27;98168;-74
2023/06/05 07:21:57;;;;;;;;;;;;;;;34.10;24.70;101121.94;4945820;27;99129;-75
2023/06/05 07:24:24;;;;;;;;;;;;;;;34.55;24.63;101124.72;4939495;28;98297;-66
2023/06/05 07:26:55;;;;;;;;;;;;;;;34.71;24.70;101126.16;4962954;27;97865;-70
2023/06/05 07:29:22;;;;;;;;;;;;;;;34.90;25.06;101117.94;4960422;28;98453;-66
2023/06/05 07:31:52;;;;;;;;;;;;;;;35.04;24.73;101119.75;4950694;27;99256;-74
2023/06/05 07:34:18;;;;;;;;;;;;;;;35.41;24.80;101106.84;4947312;27;97951;-74
2023/06/05 07:36:45;;;;;;;;;;;;;;;35.33;24.88;101113.75;4945065;27;98362;-65
2023/06/05 07:39:15;;;;;;;;;;;;;;;35.64;24.80;101111.72;4954816;27;98525;-73
2023/06/05 07:41:42;;;;;;;;;;;;;;;35.95;24.69;101112.41;4948571;28;98049;-74
2023/06/05 07:44:15;;;;;;;;;;;;;;;36.36;24.59;101111.31;4948864;27;99550;-73
2023/06/05 07:46:43;;;;;;;;;;;;;;;36.88;24.41;101107.91;4961804;27;99839;-66
2023/06/05 07:49:09;;;;;;;;;;;;;;;37.36;24.10;101109.25;4951877;27;98344;-74
2023/06/05 07:51:37;;;;;;;;;;;;;;;37.94;23.67;101115.13;4954639;27;98539;-74
2023/06/05 07:54:07;;;;;;;;;;;;;;;38.28;24.17;101103.41;4947750;27;98119;-66
2023/06/05 07:56:33;;;;;;;;;;;;;;;38.56;23.95;101103.88;4951677;28;97949;-65
2023/06/05 07:59:02;;;;;;;;;;;;;;;38.91;24.09;101098.44;4934894;28;98701;-74
2023/06/05 08:01:29;;;;;;;;;;;;;;;39.48;23.54;101093.88;4948744;27;98151;-74
2023/06/05 08:03:55;;;;;;;;;;;;;;;40.03;23.23;101094.44;4951497;27;98226;-66
2023/06/05 08:06:21;;;;;;;;;;;;;;;40.52;23.15;101087.47;4966455;27;98420;-66
2023/06/05 08:08:47;;;;;;;;;;;;;;;41.12;23.10;101084.44;4930759;27;98297;-75
2023/06/05 08:11:13;;;;;;;;;;;;;;;40.68;23.58;101085.28;4946189;27;98505;-74
2023/06/05 08:13:39;;;;;;;;;;;;;;;41.21;23.08;101075.97;4946871;27;98068;-75
2023/06/05 08:16:06;;;;;;;;;;;;;;;40.65;23.50;101085.41;4935008;27;99798;-75
2023/06/05 08:18:33;;;;;;;;;;;;;;;40.43;24.02;101083.34;4954484;27;98339;-66
2023/06/05 08:21:01;;;;;;;;;;;;;;;40.60;23.66;101083.16;4953811;27;100657;-66
2023/06/05 08:23:27;;;;;;;;;;;;;;;41.22;23.14;101081.16;4950620;27;98111;-75
2023/06/05 08:25:54;;;;;;;;;;;;;;;41.34;23.28;101090.00;4953417;27;98250;-66
2023/06/05 08:28:20;;;;;;;;;;;;;;;42.09;22.79;101090.50;4962027;27;98070;-66
2023/06/05 08:30:46;;;;;;;;;;;;;;;42.88;22.57;101084.16;4950203;27;99086;-74
2023/06/05 08:33:12;;;;;;;;;;;;;;;43.25;22.26;101084.00;4950890;27;98576;-66
2023/06/05 08:35:40;;;;;;;;;;;;;;;43.66;22.24;101084.41;4965515;27;99780;-67
2023/06/05 08:38:06;;;;;;;;;;;;;;;43.92;22.26;101081.91;4930323;28;99468;-66
2023/06/05 08:40:33;;;;;;;;;;;;;;;44.41;22.18;101074.84;4962682;27;98065;-66
2023/06/05 08:43:01;;;;;;;;;;;;;;;45.08;22.01;101081.69;4961010;27;98829;-75
2023/06/05 08:45:29;;;;;;;;;;;;;;;44.65;22.37;101060.53;4942921;27;98166;-66
2023/06/05 08:47:55;;;;;;;;;;;;;;;45.01;22.17;101068.66;4967644;27;116411;-66
2023/06/05 08:50:22;;;;;;;;;;;;;;;45.26;22.25;101063.63;4964560;27;99526;-66
2023/06/05 08:52:49;;;;;;;;;;;;;;;45.91;21.94;101052.09;4931474;27;98501;-66
2023/06/05 08:55:15;;;;;;;;;;;;;;;46.42;21.55;101057.06;4944177;27;98349;-75
2023/06/05 08:57:42;;;;;;;;;;;;;;;46.91;21.69;101052.28;4968228;27;97943;-66
2023/06/05 09:00:14;;;;;;;;;;;;;;;47.17;21.55;101048.59;4954092;27;98072;-67
2023/06/05 09:02:46;;;;;;;;;;;;;;;46.92;21.75;101042.44;4967618;27;97992;-74
2023/06/05 09:05:13;;;;;;;;;;;;;;;47.81;21.18;101044.25;4960095;27;97948;-71
2023/06/05 09:07:41;;;;;;;;;;;;;;;47.29;21.48;101041.66;4950040;27;98636;-71
2023/06/05 09:10:28;;;;;;;;;;;;;;;47.18;21.62;101033.81;4980516;27;98753;-73
2023/06/05 09:12:59;;;;;;;;;;;;;;;45.47;22.78;101031.09;4979034;27;98479;-73
2023/06/05 09:15:32;;;;;;;;;;;;;;;45.58;22.32;101030.47;4962170;27;98018;-73
2023/06/05 09:18:11;;;;;;;;;;;;;;;44.44;23.04;101022.75;4929849;27;98253;-65
2023/06/05 09:20:39;;;;;;;;;;;;;;;43.77;23.33;101023.03;4924295;28;98094;-73
2023/06/05 09:23:21;;;;;;;;;;;;;;;42.60;24.04;101030.38;4948224;27;102053;-73
2023/06/05 09:25:50;;;;;;;;;;;;;;;41.06;24.72;101024.91;4967698;27;98027;-73
2023/06/05 09:28:17;;;;;;;;;;;;;;;41.13;24.39;101015.34;4947195;27;98006;-64
2023/06/05 09:31:02;;;;;;;;;;;;;;;41.08;24.22;101013.16;4945538;27;98092;-65
2023/06/05 09:33:30;;;;;;;;;;;;;;;40.55;24.44;101018.81;4945126;27;98308;-64
2023/06/05 09:36:08;;;;;;;;;;;;;;;40.36;24.57;101013.03;4952904;27;98158;-64
2023/06/05 09:38:36;;;;;;;;;;;;;;;42.26;22.86;101023.06;4949014;28;98383;-73
2023/06/05 09:41:18;;;;;;;;;;;;;;;43.47;22.33;101019.31;4962997;27;98183;-64
2023/06/05 09:43:45;;;;;;;;;;;;;;;44.52;21.97;101015.41;4951214;27;98138;-65
2023/06/05 09:46:13;;;;;;;;;;;;;;;45.20;21.76;101015.22;4970945;27;98021;-73
2023/06/05 09:48:39;;;;;;;;;;;;;;;44.44;22.47;101006.50;4956336;27;98137;-64
2023/06/05 09:51:24;;;;;;;;;;;;;;;45.24;21.84;101009.31;4951836;27;98050;-65
2023/06/05 09:53:50;;;;;;;;;;;;;;;44.85;22.18;100998.16;4950563;28;101056;-73
2023/06/05 09:56:18;;;;;;;;;;;;;;;45.03;21.96;100997.88;4963057;27;98452;-65
2023/06/05 09:58:46;;;;;;;;;;;;;;;45.59;21.90;100999.94;4963488;27;98316;-73
2023/06/05 10:01:22;;;;;;;;;;;;;;;46.46;21.40;101003.47;4965983;28;98245;-75
2023/06/05 10:03:57;;;;;;;;;;;;;;;46.97;20.94;101004.66;4967575;28;98084;-65
2023/06/05 10:06:27;;;;;;;;;;;;;;;47.11;21.04;100994.34;4943513;27;98013;-64
2023/06/05 10:08:55;;;;;;;;;;;;;;;47.26;21.21;100993.41;4965416;27;98320;-73
2023/06/05 10:11:22;;;;;;;;;;;;;;;47.50;21.46;100976.66;4951031;27;98254;-65
2023/06/05 10:14:02;;;;;;;;;;;;;;;47.44;21.55;100976.66;5074279;27;97750;-73
2023/06/05 10:16:28;;;;;;;;;;;;;;;47.73;21.51;100976.75;5043075;27;97956;-73
2023/06/05 10:18:56;;;;;;;;;;;;;;;47.77;21.39;100980.91;5029602;27;98324;-73
2023/06/05 10:21:22;;;;;;;;;;;;;;;47.73;21.39;100974.69;5026254;27;98525;-73
2023/06/05 10:23:51;;;;;;;;;;;;;;;47.50;21.45;100967.31;5004990;27;97956;-73
2023/06/05 10:26:32;;;;;;;;;;;;;;;47.52;21.80;100964.72;5023754;27;98402;-65
2023/06/05 10:29:28;;;;;;;;;;;;;;;47.52;21.76;100970.44;5020236;27;98460;-72
2023/06/05 10:32:08;;;;;;;;;;;;;;;47.69;21.42;100957.81;4983946;27;98048;-65
2023/06/05 10:34:48;;;;;;;;;;;;;;;47.73;21.67;100957.56;5006580;27;98174;-74
2023/06/05 10:37:43;;;;;;;;;;;;;;;47.90;21.54;100949.78;5004974;27;98270;-73
2023/06/05 10:40:10;;;;;;;;;;;;;;;47.71;21.84;100957.28;5023740;27;98117;-74
2023/06/05 10:42:36;;;;;;;;;;;;;;;47.78;21.34;100945.34;5023539;27;98365;-74
2023/06/05 10:45:02;;;;;;;;;;;;;;;47.66;21.72;100955.16;5007548;27;98144;-73
2023/06/05 10:47:35;;;;;;;;;;;;;;;47.44;21.49;100950.97;5024592;27;97921;-65
2023/06/05 10:50:19;;;;;;;;;;;;;;;47.55;21.48;100953.06;5042065;27;98123;-74
2023/06/05 10:52:46;;;;;;;;;;;;;;;47.53;21.41;100938.53;5038612;27;98014;-65
2023/06/05 10:55:15;;;;;;;;;;;;;;;47.55;21.46;100947.34;5008279;27;98260;-65
2023/06/05 10:58:02;;;;;;;;;;;;;;;47.44;21.61;100935.94;5009525;27;98409;-73
2023/06/05 11:00:29;;;;;;;;;;;;;;;47.39;21.63;100948.88;5041432;27;98214;-65
2023/06/05 11:02:55;;;;;;;;;;;;;;;47.26;21.63;100939.22;5006486;27;98088;-65
2023/06/05 11:05:23;;;;;;;;;;;;;;;47.26;21.81;100933.50;5009438;27;99675;-74
2023/06/05 11:08:09;;;;;;;;;;;;;;;47.03;21.99;100935.47;5006665;27;98293;-74
2023/06/05 11:10:36;;;;;;;;;;;;;;;46.87;22.18;100931.22;5034208;27;98641;-74
2023/06/05 11:13:02;;;;;;;;;;;;;;;46.82;21.98;100926.28;5004223;27;98109;-74
2023/06/05 11:15:36;;;;;;;;;;;;;;;46.76;21.84;100926.25;5013268;27;98148;-74
2023/06/05 11:18:28;;;;;;;;;;;;;;;46.45;22.29;100915.66;5037901;27;98511;-74
2023/06/05 11:20:55;;;;;;;;;;;;;;;46.11;22.07;100915.38;5037036;27;98117;-75
2023/06/05 11:23:27;;;;;;;;;;;;;;;45.84;22.06;100916.69;5001791;27;98346;-66
2023/06/05 11:25:56;;;;;;;;;;;;;;;45.62;22.19;100928.59;4984769;27;99627;-66
2023/06/05 11:28:39;;;;;;;;;;;;;;;45.32;22.43;100913.78;4986917;27;98115;-66
2023/06/05 11:31:06;;;;;;;;;;;;;;;44.88;22.96;100916.78;5005912;27;98111;-74
2023/06/05 11:33:32;;;;;;;;;;;;;;;44.44;22.64;100909.16;5000772;27;98233;-75
2023/06/05 11:36:07;;;;;;;;;;;;;;;44.07;22.97;100918.09;5002608;27;99205;-74
2023/06/05 11:38:34;;;;;;;;;;;;;;;43.67;23.32;100899.56;4990026;27;98123;-74
2023/06/05 11:41:00;;;;;;;;;;;;;;;43.26;23.14;100912.63;4986470;27;98080;-74
2023/06/05 11:43:26;;;;;;;;;;;;;;;43.00;23.09;100915.16;4985562;27;98062;-66
2023/06/05 11:45:54;;;;;;;;;;;;;;;42.81;23.33;100917.31;5001886;27;98404;-66
2023/06/05 11:48:21;;;;;;;;;;;;;;;42.43;23.64;100896.06;4994367;27;98216;-66
2023/06/05 11:51:03;;;;;;;;;;;;;;;42.22;23.81;100899.91;4991495;27;98808;-75
2023/06/05 11:53:30;;;;;;;;;;;;;;;42.32;23.18;100901.47;5010187;27;98281;-75
2023/06/05 11:58:30;;;;;;;;;;;;;;;42.05;23.48;100888.94;5005895;27;97972;-75
2023/06/05 12:01:22;;;;;;;;;;;;;;;41.98;23.76;100882.84;5001987;27;98848;-75
2023/06/05 12:04:10;;;;;;;;;;;;;;;41.83;23.63;100877.84;4988972;27;98874;-74
2023/06/05 12:06:48;;;;;;;;;;;;;;;41.42;23.99;100885.69;5021755;27;98041;-75
2023/06/05 12:09:15;;;;;;;;;;;;;;;40.71;24.09;100894.34;4988444;27;98011;-66
2023/06/05 12:11:44;;;;;;;;;;;;;;;39.90;24.59;100884.97;4984903;27;98839;-74
2023/06/05 12:14:35;;;;;;;;;;;;;;;39.37;24.36;100874.34;4992159;27;98202;-66
2023/06/05 12:17:08;;;;;;;;;;;;;;;38.69;25.07;100875.81;5006846;27;99126;-66
2023/06/05 12:19:35;;;;;;;;;;;;;;;38.44;24.55;100879.44;5010351;27;98248;-73
2023/06/05 12:22:05;;;;;;;;;;;;;;;38.44;24.61;100871.00;4993257;27;98369;-74
2023/06/05 12:24:32;;;;;;;;;;;;;;;38.95;23.95;100868.16;5009883;27;98145;-66
2023/06/05 12:27:03;;;;;;;;;;;;;;;39.21;23.79;100872.47;4991413;27;98126;-74
2023/06/05 12:29:34;;;;;;;;;;;;;;;39.23;24.02;100869.25;5007801;27;98063;-65
2023/06/05 12:32:02;;;;;;;;;;;;;;;38.78;24.27;100865.47;5006018;27;100089;-74
2023/06/05 12:34:50;;;;;;;;;;;;;;;38.62;24.49;100868.41;4991508;27;99410;-74
2023/06/05 12:37:31;;;;;;;;;;;;;;;38.69;24.35;100870.97;4993683;27;98096;-74
2023/06/05 12:40:00;;;;;;;;;;;;;;;38.84;24.17;100857.25;4995332;27;101711;-74
2023/06/05 12:42:27;;;;;;;;;;;;;;;39.06;24.08;100862.16;4992564;27;98430;-74
2023/06/05 12:44:54;;;;;;;;;;;;;;;39.15;23.64;100865.84;4989778;27;99509;-66
2023/06/05 12:47:22;;;;;;;;;;;;;;;39.22;23.92;100853.53;4989559;27;98085;-65